createdAt,value
2022-10-22T00:02:53.566Z,9.12
2022-10-22T00:05:55.754Z,9.06
2022-10-22T00:08:57.948Z,9.07
2022-10-22T00:12:00.095Z,9.11
2022-10-22T00:15:03.110Z,8.96
2022-10-22T00:18:05.283Z,8.96
2022-10-22T00:21:07.815Z,8.96
2022-10-22T00:24:09.921Z,9.02
2022-10-22T00:27:12.443Z,8.95
2022-10-22T00:30:14.558Z,8.98
2022-10-22T00:33:16.665Z,8.91
2022-10-22T00:36:18.771Z,8.87
2022-10-22T00:39:23.101Z,8.81
2022-10-22T00:42:26.920Z,8.87
2022-10-22T00:45:29.238Z,8.90
2022-10-22T00:48:33.499Z,9.22
2022-10-22T00:51:36.214Z,8.94
2022-10-22T00:54:38.885Z,8.96
2022-10-22T00:57:41.249Z,9.03
2022-10-22T01:00:43.464Z,8.78
2022-10-22T01:03:45.807Z,8.75
2022-10-22T01:06:48.537Z,8.79
2022-10-22T01:10:05.489Z,8.94
2022-10-22T01:13:33.630Z,9.05
2022-10-22T01:16:43.817Z,8.95
2022-10-22T01:20:04.831Z,9.05
2022-10-22T01:23:09.706Z,8.95
2022-10-22T01:26:33.506Z,8.86
2022-10-22T01:30:01.670Z,8.85
2022-10-22T01:33:06.847Z,8.85
2022-10-22T01:36:09.647Z,8.84
2022-10-22T01:39:12.828Z,8.80
2022-10-22T01:42:15.451Z,8.76
2022-10-22T01:45:17.604Z,8.80
2022-10-22T01:48:30.547Z,8.90
2022-10-22T01:51:39.002Z,9.03
2022-10-22T01:54:57.209Z,9.07
2022-10-22T01:58:08.213Z,9.47
2022-10-22T02:01:27.060Z,9.49
2022-10-22T02:04:37.547Z,9.55
2022-10-22T02:07:44.961Z,9.58
2022-10-22T02:10:48.120Z,9.34
2022-10-22T02:13:53.850Z,9.00
2022-10-22T02:16:57.117Z,9.05
2022-10-22T02:20:02.164Z,9.15
2022-10-22T02:23:04.880Z,9.14
2022-10-22T02:26:28.528Z,8.75
2022-10-22T02:30:02.216Z,8.58
2022-10-22T02:33:14.838Z,8.58
2022-10-22T02:36:18.336Z,8.61
2022-10-22T02:39:21.166Z,8.84
2022-10-22T02:42:25.317Z,9.04
2022-10-22T02:45:27.489Z,9.00
2022-10-22T02:48:29.677Z,8.87
2022-10-22T02:51:32.098Z,8.71
2022-10-22T02:54:34.385Z,8.66
2022-10-22T02:57:36.604Z,8.71
2022-10-22T03:00:39.353Z,8.65
2022-10-22T03:03:41.526Z,8.59
2022-10-22T03:06:44.675Z,8.49
2022-10-22T03:09:47.091Z,8.29
2022-10-22T03:12:49.257Z,8.15
2022-10-22T03:15:51.530Z,8.00
2022-10-22T03:18:53.666Z,7.75
2022-10-22T03:21:58.902Z,7.78
2022-10-22T03:25:04.188Z,7.86
2022-10-22T03:28:09.421Z,7.79
2022-10-22T03:31:11.572Z,8.07
2022-10-22T03:34:13.725Z,7.96
2022-10-22T03:37:15.978Z,7.59
2022-10-22T03:40:18.653Z,7.73
2022-10-22T03:43:20.775Z,7.80
2022-10-22T03:46:23.027Z,7.47
2022-10-22T03:49:25.138Z,7.11
2022-10-22T03:52:27.349Z,7.20
2022-10-22T03:55:29.461Z,7.16
2022-10-22T03:58:31.550Z,6.97
2022-10-22T04:01:33.793Z,7.06
2022-10-22T04:04:36.900Z,7.11
2022-10-22T04:07:39.332Z,7.32
2022-10-22T04:10:41.539Z,7.24
2022-10-22T04:13:43.928Z,7.12
2022-10-22T04:16:46.036Z,7.12
2022-10-22T04:19:48.168Z,7.20
2022-10-22T04:22:50.359Z,7.29
2022-10-22T04:25:58.316Z,7.48
2022-10-22T04:29:00.451Z,7.59
2022-10-22T04:32:02.636Z,7.56
2022-10-22T04:35:05.141Z,7.54
2022-10-22T04:38:07.270Z,7.53
2022-10-22T04:41:16.880Z,7.42
2022-10-22T04:44:19.027Z,7.35
2022-10-22T04:47:21.296Z,7.30
2022-10-22T04:50:23.418Z,7.30
2022-10-22T04:53:26.002Z,7.43
2022-10-22T04:56:32.052Z,7.17
2022-10-22T04:59:34.216Z,7.00
2022-10-22T05:02:36.350Z,6.76
2022-10-22T05:05:38.584Z,6.78
2022-10-22T05:08:41.022Z,6.68
2022-10-22T05:11:48.681Z,6.81
2022-10-22T05:14:51.173Z,6.95
2022-10-22T05:17:53.347Z,6.99
2022-10-22T05:20:55.491Z,7.19
2022-10-22T05:23:59.941Z,7.26
2022-10-22T05:27:02.415Z,7.08
2022-10-22T05:30:05.103Z,7.12
2022-10-22T05:33:07.234Z,6.89
2022-10-22T05:36:12.792Z,6.75
2022-10-22T05:39:14.944Z,6.60
2022-10-22T05:42:17.084Z,6.79
2022-10-22T05:45:19.335Z,6.79
2022-10-22T05:48:21.596Z,7.04
2022-10-22T05:51:24.572Z,7.19
2022-10-22T05:54:26.867Z,7.10
2022-10-22T05:57:29.169Z,7.22
2022-10-22T06:00:31.282Z,7.37
2022-10-22T06:03:33.589Z,7.32
2022-10-22T06:06:50.738Z,7.41
2022-10-22T06:09:53.827Z,7.62
2022-10-22T06:12:55.996Z,7.55
2022-10-22T06:15:58.209Z,7.61
2022-10-22T06:19:03.674Z,7.60
2022-10-22T06:22:05.879Z,7.65
2022-10-22T06:25:08.535Z,7.67
2022-10-22T06:28:10.846Z,7.83
2022-10-22T06:31:13.015Z,8.07
2022-10-22T06:34:15.781Z,8.39
2022-10-22T06:37:18.061Z,8.59
2022-10-22T06:40:21.108Z,8.53
2022-10-22T06:43:23.257Z,8.78
2022-10-22T06:46:26.202Z,9.10
2022-10-22T06:49:28.383Z,9.43
2022-10-22T06:52:30.543Z,9.41
2022-10-22T06:55:32.751Z,9.35
2022-10-22T06:58:35.155Z,9.35
2022-10-22T07:01:38.006Z,9.77
2022-10-22T07:04:41.481Z,9.75
2022-10-22T07:07:43.586Z,9.94
2022-10-22T07:10:45.796Z,10.38
2022-10-22T07:13:48.431Z,10.58
2022-10-22T07:16:50.687Z,10.56
2022-10-22T07:19:52.874Z,10.60
2022-10-22T07:22:54.987Z,10.87
2022-10-22T07:25:57.649Z,11.07
2022-10-22T07:29:00.789Z,11.07
2022-10-22T07:32:03.015Z,11.30
2022-10-22T07:35:05.748Z,11.25
2022-10-22T07:38:08.663Z,11.33
2022-10-22T07:41:11.298Z,11.23
2022-10-22T07:44:13.399Z,11.45
2022-10-22T07:47:15.579Z,11.75
2022-10-22T07:50:17.939Z,12.03
2022-10-22T07:53:21.333Z,12.24
2022-10-22T07:56:23.561Z,12.32
2022-10-22T07:59:25.742Z,12.33
2022-10-22T08:02:27.927Z,12.54
2022-10-22T08:05:30.084Z,12.70
2022-10-22T08:08:32.339Z,12.61
2022-10-22T08:11:34.677Z,13.20
2022-10-22T08:14:36.865Z,13.54
2022-10-22T08:17:39.239Z,13.78
2022-10-22T08:20:42.586Z,13.82
2022-10-22T08:23:44.748Z,14.14
2022-10-22T08:26:46.948Z,14.54
2022-10-22T08:29:49.154Z,14.77
2022-10-22T08:32:53.988Z,14.93
2022-10-22T08:35:56.452Z,15.09
2022-10-22T08:38:58.547Z,15.29
2022-10-22T08:42:27.510Z,15.13
2022-10-22T08:45:36.644Z,15.04
2022-10-22T08:48:53.228Z,15.18
2022-10-22T08:51:57.287Z,15.08
2022-10-22T08:55:00.369Z,14.85
2022-10-22T08:58:20.309Z,14.77
2022-10-22T09:01:31.807Z,14.63
2022-10-22T09:04:49.345Z,14.55
2022-10-22T09:07:51.658Z,14.74
2022-10-22T09:10:59.308Z,14.72
2022-10-22T09:14:02.831Z,14.38
2022-10-22T09:17:23.875Z,14.28
2022-10-22T09:20:49.789Z,14.30
2022-10-22T09:24:12.211Z,14.31
2022-10-22T09:27:23.828Z,14.41
2022-10-22T09:30:28.613Z,14.37
2022-10-22T09:33:31.623Z,14.38
2022-10-22T09:36:34.377Z,14.35
2022-10-22T09:39:44.067Z,14.25
2022-10-22T09:42:47.250Z,14.21
2022-10-22T09:45:57.139Z,14.28
2022-10-22T09:49:11.233Z,14.28
2022-10-22T09:52:27.066Z,14.38
2022-10-22T09:55:29.425Z,14.41
2022-10-22T09:58:43.467Z,14.60
2022-10-22T10:01:45.772Z,14.72
2022-10-22T10:04:53.088Z,14.76
2022-10-22T10:07:55.325Z,14.82
2022-10-22T10:11:11.462Z,14.59
2022-10-22T10:14:51.163Z,14.59
2022-10-22T10:18:12.643Z,15.01
2022-10-22T10:21:37.563Z,14.81
2022-10-22T10:24:51.879Z,14.54
2022-10-22T10:28:00.201Z,14.56
2022-10-22T10:31:21.042Z,14.57
2022-10-22T10:34:57.303Z,14.73
2022-10-22T10:38:37.264Z,15.02
2022-10-22T10:42:03.464Z,15.09
2022-10-22T10:45:28.028Z,15.19
2022-10-22T10:49:01.681Z,15.26
2022-10-22T10:52:21.349Z,15.29
2022-10-22T10:55:37.362Z,15.32
2022-10-22T10:58:54.727Z,15.18
2022-10-22T11:02:20.938Z,15.07
2022-10-22T11:06:02.502Z,15.10
2022-10-22T11:09:22.104Z,15.03
2022-10-22T11:12:27.541Z,15.05
2022-10-22T11:15:34.783Z,15.05
2022-10-22T11:18:52.087Z,15.16
2022-10-22T11:22:22.422Z,15.13
2022-10-22T11:25:32.186Z,15.17
2022-10-22T11:28:39.910Z,15.20
2022-10-22T11:31:44.288Z,15.29
2022-10-22T11:34:52.015Z,15.34
2022-10-22T11:37:55.968Z,15.39
2022-10-22T11:41:05.212Z,15.24
2022-10-22T11:44:07.267Z,15.36
2022-10-22T11:47:17.735Z,15.19
2022-10-22T11:50:25.744Z,15.17
2022-10-22T11:53:39.016Z,15.17
2022-10-22T11:56:41.472Z,15.14
2022-10-22T12:00:02.234Z,15.25
2022-10-22T12:03:24.433Z,15.16
2022-10-22T12:06:47.336Z,15.20
2022-10-22T12:13:11.946Z,15.13
2022-10-22T12:16:14.923Z,15.14
2022-10-22T12:19:22.977Z,15.24
2022-10-22T12:22:30.148Z,15.32
2022-10-22T12:25:35.892Z,15.38
2022-10-22T12:28:41.177Z,15.45
2022-10-22T12:31:44.931Z,15.56
2022-10-22T12:37:58.264Z,15.33
2022-10-22T12:41:00.403Z,15.23
2022-10-22T12:44:04.221Z,15.26
2022-10-22T12:47:07.828Z,15.29
2022-10-22T12:50:17.766Z,15.22
2022-10-22T12:53:24.270Z,15.02
2022-10-22T12:56:32.442Z,15.04
2022-10-22T12:59:39.259Z,14.98
2022-10-22T13:02:43.527Z,14.89
2022-10-22T13:05:48.325Z,14.91
2022-10-22T13:08:59.784Z,14.89
2022-10-22T13:12:06.372Z,14.79
2022-10-22T13:15:22.162Z,14.80
2022-10-22T13:18:25.234Z,14.74
2022-10-22T13:21:48.614Z,14.79
2022-10-22T13:24:53.577Z,14.58
2022-10-22T13:27:57.550Z,14.54
2022-10-22T13:31:01.978Z,14.31
2022-10-22T13:34:11.696Z,14.19
2022-10-22T13:37:15.132Z,14.23
2022-10-22T13:40:17.620Z,14.13
2022-10-22T13:43:20.207Z,14.19
2022-10-22T13:46:22.979Z,14.22
2022-10-22T13:49:25.139Z,14.17
2022-10-22T13:52:39.640Z,14.13
2022-10-22T13:55:41.959Z,13.91
2022-10-22T13:58:45.606Z,13.89
2022-10-22T14:01:49.325Z,13.98
2022-10-22T14:04:51.659Z,13.95
2022-10-22T14:07:53.839Z,13.93
2022-10-22T14:10:56.418Z,13.99
2022-10-22T14:13:59.163Z,14.03
2022-10-22T14:17:01.701Z,13.99
2022-10-22T14:20:03.946Z,13.98
2022-10-22T14:26:32.822Z,13.70
2022-10-22T14:29:34.964Z,13.53
2022-10-22T14:32:37.145Z,13.33
2022-10-22T14:35:39.299Z,13.35
2022-10-22T14:38:42.803Z,13.26
2022-10-22T14:41:44.954Z,13.31
2022-10-22T14:44:47.126Z,13.25
2022-10-22T14:47:50.359Z,13.27
2022-10-22T14:50:52.649Z,13.16
2022-10-22T14:53:54.856Z,13.13
2022-10-22T14:56:57.040Z,13.07
2022-10-22T14:59:59.302Z,13.11
2022-10-22T15:03:03.472Z,12.98
2022-10-22T15:06:07.180Z,12.98
2022-10-22T15:09:09.573Z,12.95
2022-10-22T15:12:11.759Z,12.89
2022-10-22T15:15:13.957Z,12.82
2022-10-22T15:18:16.116Z,12.79
2022-10-22T15:21:21.002Z,12.76
2022-10-22T15:24:23.202Z,12.76
2022-10-22T15:27:25.521Z,12.80
2022-10-22T15:30:27.694Z,12.77
2022-10-22T15:33:30.362Z,12.63
2022-10-22T15:36:33.086Z,12.59
2022-10-22T15:39:35.731Z,12.62
2022-10-22T15:42:38.435Z,12.49
2022-10-22T15:45:40.999Z,12.46
2022-10-22T15:48:43.613Z,12.41
2022-10-22T15:51:45.867Z,12.35
2022-10-22T15:54:48.129Z,12.33
2022-10-22T15:57:54.862Z,12.34
2022-10-22T16:01:07.174Z,12.28
2022-10-22T16:04:09.961Z,12.20
2022-10-22T16:07:12.104Z,12.03
2022-10-22T16:10:14.485Z,11.95
2022-10-22T16:13:16.770Z,11.85
2022-10-22T16:16:18.902Z,11.69
2022-10-22T16:19:24.520Z,11.59
2022-10-22T16:22:26.703Z,11.57
2022-10-22T16:25:28.992Z,11.63
2022-10-22T16:28:31.195Z,11.57
2022-10-22T16:31:33.322Z,11.64
2022-10-22T16:34:35.470Z,11.65
2022-10-22T16:37:39.180Z,11.58
2022-10-22T16:40:42.303Z,11.52
2022-10-22T16:43:47.094Z,11.53
2022-10-22T16:46:49.278Z,11.52
2022-10-22T16:49:51.423Z,11.54
2022-10-22T16:52:53.647Z,11.51
2022-10-22T16:55:55.978Z,11.59
2022-10-22T16:58:58.277Z,11.71
2022-10-22T17:02:00.661Z,11.68
2022-10-22T17:05:03.118Z,11.64
2022-10-22T17:08:05.856Z,11.58
2022-10-22T17:11:13.774Z,11.55
2022-10-22T17:14:16.222Z,11.59
2022-10-22T17:17:18.434Z,11.58
2022-10-22T17:20:20.766Z,11.55
2022-10-22T17:23:23.104Z,11.58
2022-10-22T17:26:26.987Z,11.62
2022-10-22T17:29:29.573Z,11.61
2022-10-22T17:32:32.068Z,11.59
2022-10-22T17:35:35.814Z,11.57
2022-10-22T17:38:38.942Z,11.52
2022-10-22T17:41:41.159Z,11.50
2022-10-22T17:44:43.402Z,11.51
2022-10-22T17:47:46.150Z,11.51
2022-10-22T17:50:50.729Z,11.51
2022-10-22T17:53:54.981Z,11.41
2022-10-22T17:56:57.231Z,11.37
2022-10-22T17:59:59.493Z,11.40
2022-10-22T18:03:01.854Z,11.41
2022-10-22T18:06:07.134Z,11.33
2022-10-22T18:09:14.424Z,11.30
2022-10-22T18:12:19.755Z,11.18
2022-10-22T18:15:22.109Z,11.25
2022-10-22T18:18:24.406Z,11.29
2022-10-22T18:21:28.943Z,11.24
2022-10-22T18:24:31.705Z,11.32
2022-10-22T18:27:34.108Z,11.28
2022-10-22T18:30:38.194Z,11.32
2022-10-22T18:33:40.785Z,11.32
2022-10-22T18:36:43.171Z,11.35
2022-10-22T18:39:45.681Z,11.25
2022-10-22T18:42:48.107Z,11.26
2022-10-22T18:45:50.495Z,11.24
2022-10-22T18:48:54.197Z,11.15
2022-10-22T18:51:56.598Z,11.10
2022-10-22T18:54:59.511Z,11.18
2022-10-22T18:58:01.859Z,11.04
2022-10-22T19:01:13.902Z,11.03
2022-10-22T19:04:19.708Z,11.01
2022-10-22T19:07:22.430Z,10.96
2022-10-22T19:10:26.676Z,10.99
2022-10-22T19:13:29.330Z,10.97
2022-10-22T19:16:31.545Z,11.00
2022-10-22T19:19:33.694Z,10.94
2022-10-22T19:22:35.953Z,10.89
2022-10-22T19:25:38.558Z,10.74
2022-10-22T19:28:41.720Z,10.68
2022-10-22T19:31:44.483Z,10.61
2022-10-22T19:34:47.366Z,10.52
2022-10-22T19:37:49.985Z,10.51
2022-10-22T19:40:52.125Z,10.44
2022-10-22T19:43:56.392Z,10.34
2022-10-22T19:46:58.772Z,10.28
2022-10-22T19:50:01.007Z,10.32
2022-10-22T19:53:03.777Z,10.43
2022-10-22T19:56:07.613Z,10.37
2022-10-22T19:59:09.927Z,10.48
2022-10-22T20:02:15.666Z,10.44
2022-10-22T20:05:17.945Z,10.43
2022-10-22T20:08:20.145Z,10.49
2022-10-22T20:11:25.040Z,10.41
2022-10-22T20:14:27.200Z,10.44
2022-10-22T20:17:29.552Z,10.55
2022-10-22T20:20:31.735Z,10.50
2022-10-22T20:23:34.695Z,10.61
2022-10-22T20:26:36.848Z,10.65
2022-10-22T20:29:40.273Z,10.56
2022-10-22T20:32:42.642Z,10.38
2022-10-22T20:35:45.379Z,10.24
2022-10-22T20:38:48.322Z,10.11
2022-10-22T20:41:51.009Z,10.13
2022-10-22T20:44:53.376Z,10.05
2022-10-22T20:48:02.598Z,10.08
2022-10-22T20:51:06.461Z,10.12
2022-10-22T20:54:09.500Z,10.14
2022-10-22T20:57:13.315Z,10.30
2022-10-22T21:00:15.778Z,10.09
2022-10-22T21:03:18.199Z,10.20
2022-10-22T21:06:23.753Z,10.20
2022-10-22T21:09:25.921Z,10.04
2022-10-22T21:12:28.057Z,10.00
2022-10-22T21:15:30.175Z,10.07
2022-10-22T21:18:32.317Z,10.02
2022-10-22T21:21:34.568Z,9.99
2022-10-22T21:24:36.921Z,10.17
2022-10-22T21:27:39.289Z,10.36
2022-10-22T21:30:45.626Z,10.38
2022-10-22T21:33:49.879Z,10.43
2022-10-22T21:36:52.869Z,10.57
2022-10-22T21:39:55.006Z,10.40
2022-10-22T21:42:58.787Z,10.43
2022-10-22T21:46:07.775Z,10.47
2022-10-22T21:49:10.910Z,10.50
2022-10-22T21:52:13.086Z,10.20
2022-10-22T21:55:15.230Z,10.30
2022-10-22T21:58:17.340Z,10.36
2022-10-22T22:01:20.173Z,10.36
2022-10-22T22:04:22.350Z,10.35
2022-10-22T22:07:24.546Z,10.45
2022-10-22T22:10:26.742Z,10.41
2022-10-22T22:13:28.967Z,10.34
2022-10-22T22:16:32.848Z,10.30
2022-10-22T22:19:35.023Z,10.30
2022-10-22T22:22:37.159Z,10.26
2022-10-22T22:25:39.309Z,10.12
2022-10-22T22:28:41.866Z,10.09
2022-10-22T22:31:45.887Z,10.11
2022-10-22T22:34:48.078Z,10.07
2022-10-22T22:37:50.214Z,10.02
2022-10-22T22:40:52.368Z,9.97
2022-10-22T22:46:57.644Z,9.95
2022-10-22T22:49:59.811Z,9.99
2022-10-22T22:53:01.982Z,9.99
2022-10-22T22:56:12.651Z,9.89
2022-10-22T22:59:14.841Z,9.83
2022-10-22T23:02:17.247Z,9.89
2022-10-22T23:05:19.357Z,9.84
2022-10-22T23:08:21.461Z,9.87
2022-10-22T23:11:25.364Z,9.85
2022-10-22T23:14:27.536Z,9.80
2022-10-22T23:17:29.788Z,9.80
2022-10-22T23:20:31.995Z,9.73
2022-10-22T23:23:34.550Z,9.71
2022-10-22T23:26:39.482Z,9.68
2022-10-22T23:29:41.660Z,9.66
2022-10-22T23:32:43.771Z,9.70
2022-10-22T23:35:46.001Z,9.80
2022-10-22T23:38:48.956Z,9.75
2022-10-22T23:41:51.686Z,9.68
2022-10-22T23:44:53.844Z,9.51
2022-10-22T23:47:56.095Z,9.65
2022-10-22T23:50:58.358Z,9.65
2022-10-22T23:54:03.551Z,9.71
2022-10-22T23:57:05.681Z,9.81
